createdAt,value
2022-09-10T00:01:36.482Z,80.57
2022-09-10T00:04:10.987Z,80.56
2022-09-10T00:06:39.911Z,80.54
2022-09-10T00:09:08.931Z,80.72
2022-09-10T00:11:40.849Z,80.72
2022-09-10T00:14:17.340Z,80.74
2022-09-10T00:16:45.735Z,80.83
2022-09-10T00:19:15.105Z,80.90
2022-09-10T00:21:46.760Z,80.90
2022-09-10T00:24:14.799Z,80.86
2022-09-10T00:26:42.870Z,80.85
2022-09-10T00:29:12.787Z,80.95
2022-09-10T00:31:40.861Z,81.03
2022-09-10T00:34:11.498Z,80.99
2022-09-10T00:36:41.891Z,81.06
2022-09-10T00:39:13.848Z,81.14
2022-09-10T00:41:44.487Z,81.19
2022-09-10T00:44:39.664Z,81.20
2022-09-10T00:47:21.836Z,81.28
2022-09-10T00:49:56.818Z,81.18
2022-09-10T00:52:25.440Z,81.30
2022-09-10T00:54:54.643Z,81.38
2022-09-10T00:57:24.302Z,81.43
2022-09-10T00:59:56.320Z,81.38
2022-09-10T01:02:25.440Z,81.45
2022-09-10T01:04:55.546Z,81.40
2022-09-10T01:07:29.287Z,81.52
2022-09-10T01:10:08.529Z,81.47
2022-09-10T01:13:01.561Z,81.52
2022-09-10T01:15:46.607Z,81.52
2022-09-10T01:19:09.927Z,81.57
2022-09-10T01:22:14.052Z,81.66
2022-09-10T01:25:06.982Z,81.57
2022-09-10T01:27:37.657Z,81.67
2022-09-10T01:30:18.094Z,81.75
2022-09-10T01:32:57.025Z,81.86
2022-09-10T01:35:44.992Z,81.83
2022-09-10T01:38:23.014Z,81.89
2022-09-10T01:40:54.850Z,81.86
2022-09-10T01:43:24.646Z,81.92
2022-09-10T01:46:33.672Z,81.89
2022-09-10T01:49:36.895Z,82.02
2022-09-10T01:52:26.561Z,82.07
2022-09-10T01:55:34.404Z,82.08
2022-09-10T01:58:21.516Z,82.08
2022-09-10T02:01:11.111Z,82.13
2022-09-10T02:03:42.216Z,82.24
2022-09-10T02:06:14.870Z,82.32
2022-09-10T02:08:46.924Z,82.26
2022-09-10T02:11:16.016Z,82.26
2022-09-10T02:13:52.619Z,82.27
2022-09-10T02:16:47.300Z,82.26
2022-09-10T02:19:17.275Z,82.27
2022-09-10T02:21:54.231Z,82.25
2022-09-10T02:24:22.892Z,82.29
2022-09-10T02:26:51.219Z,82.33
2022-09-10T02:29:19.503Z,82.50
2022-09-10T02:31:47.615Z,82.52
2022-09-10T02:34:18.433Z,82.46
2022-09-10T02:36:48.151Z,82.54
2022-09-10T02:39:16.506Z,82.63
2022-09-10T02:41:48.183Z,82.65
2022-09-10T02:44:16.569Z,82.64
2022-09-10T02:46:45.362Z,82.65
2022-09-10T02:49:15.149Z,82.71
2022-09-10T02:51:44.809Z,82.83
2022-09-10T02:54:13.070Z,82.78
2022-09-10T02:56:40.961Z,82.82
2022-09-10T02:59:10.324Z,82.87
2022-09-10T03:01:39.009Z,82.89
2022-09-10T03:04:08.346Z,82.96
2022-09-10T03:06:36.908Z,83.12
2022-09-10T03:09:05.615Z,83.09
2022-09-10T03:11:34.897Z,83.17
2022-09-10T03:14:03.108Z,83.09
2022-09-10T03:16:31.119Z,83.26
2022-09-10T03:18:59.465Z,83.19
2022-09-10T03:21:27.573Z,83.23
2022-09-10T03:23:58.336Z,83.06
2022-09-10T03:26:30.635Z,83.04
2022-09-10T03:28:59.236Z,82.98
2022-09-10T03:31:27.432Z,82.96
2022-09-10T03:33:57.918Z,82.87
2022-09-10T03:36:31.367Z,82.73
2022-09-10T03:39:01.188Z,82.65
2022-09-10T03:41:37.312Z,82.53
2022-09-10T03:44:06.528Z,82.40
2022-09-10T03:46:34.528Z,82.29
2022-09-10T03:49:03.520Z,82.32
2022-09-10T03:51:32.030Z,82.30
2022-09-10T03:54:00.682Z,82.33
2022-09-10T03:56:28.693Z,82.34
2022-09-10T03:58:57.519Z,82.37
2022-09-10T04:01:27.538Z,82.42
2022-09-10T04:03:57.099Z,82.47
2022-09-10T04:06:27.111Z,82.54
2022-09-10T04:08:56.392Z,82.49
2022-09-10T04:11:27.827Z,82.54
2022-09-10T04:13:57.454Z,82.54
2022-09-10T04:16:27.552Z,82.63
2022-09-10T04:18:55.778Z,82.51
2022-09-10T04:21:24.645Z,82.78
2022-09-10T04:23:56.443Z,82.61
2022-09-10T04:26:26.406Z,82.54
2022-09-10T04:28:54.569Z,82.49
2022-09-10T04:31:22.952Z,82.41
2022-09-10T04:33:53.786Z,82.44
2022-09-10T04:36:26.089Z,82.37
2022-09-10T04:38:54.409Z,82.53
2022-09-10T04:41:22.308Z,82.49
2022-09-10T04:43:50.883Z,82.49
2022-09-10T04:46:18.934Z,82.44
2022-09-10T04:48:49.476Z,82.29
2022-09-10T04:51:21.486Z,82.27
2022-09-10T04:53:53.146Z,82.18
2022-09-10T04:56:23.968Z,82.08
2022-09-10T04:58:51.961Z,82.00
2022-09-10T05:01:20.552Z,81.99
2022-09-10T05:03:52.621Z,82.04
2022-09-10T05:06:20.797Z,82.09
2022-09-10T05:08:49.612Z,82.07
2022-09-10T05:11:19.935Z,81.80
2022-09-10T05:13:48.174Z,81.96
2022-09-10T05:16:19.420Z,82.05
2022-09-10T05:18:48.896Z,81.94
2022-09-10T05:21:18.488Z,81.79
2022-09-10T05:23:46.617Z,81.83
2022-09-10T05:26:15.016Z,81.66
2022-09-10T05:28:43.472Z,81.72
2022-09-10T05:31:16.806Z,81.67
2022-09-10T05:33:46.471Z,81.73
2022-09-10T05:36:14.877Z,81.63
2022-09-10T05:38:46.011Z,81.74
2022-09-10T05:41:14.744Z,81.75
2022-09-10T05:43:52.058Z,81.62
2022-09-10T05:46:20.349Z,81.88
2022-09-10T05:48:54.433Z,81.83
2022-09-10T05:51:27.817Z,81.90
2022-09-10T05:53:58.195Z,81.78
2022-09-10T05:56:27.285Z,81.76
2022-09-10T05:58:55.118Z,81.85
2022-09-10T06:01:23.409Z,81.66
2022-09-10T06:03:51.690Z,81.75
2022-09-10T06:06:19.712Z,81.57
2022-09-10T06:08:58.163Z,81.57
2022-09-10T06:11:40.528Z,81.54
2022-09-10T06:14:09.526Z,81.52
2022-09-10T06:16:37.952Z,81.44
2022-09-10T06:19:08.462Z,81.47
2022-09-10T06:21:37.875Z,81.40
2022-09-10T06:24:07.386Z,81.53
2022-09-10T06:26:38.501Z,81.47
2022-09-10T06:29:11.784Z,81.47
2022-09-10T06:31:42.978Z,81.49
2022-09-10T06:34:13.527Z,81.72
2022-09-10T06:36:42.179Z,81.77
2022-09-10T06:39:10.965Z,81.51
2022-09-10T06:41:49.836Z,81.46
2022-09-10T06:44:36.763Z,81.52
2022-09-10T06:50:03.828Z,81.48
2022-09-10T06:52:35.652Z,81.42
2022-09-10T06:55:06.613Z,81.44
2022-09-10T06:57:40.477Z,81.40
2022-09-10T07:00:09.758Z,81.39
2022-09-10T07:02:38.293Z,81.34
2022-09-10T07:05:08.257Z,81.31
2022-09-10T07:07:38.042Z,81.41
2022-09-10T07:10:08.233Z,81.53
2022-09-10T07:12:36.461Z,81.42
2022-09-10T07:15:06.770Z,81.49
2022-09-10T07:17:36.225Z,81.53
2022-09-10T07:20:04.986Z,81.40
2022-09-10T07:22:44.130Z,81.45
2022-09-10T07:25:14.173Z,81.57
2022-09-10T07:27:54.483Z,81.47
2022-09-10T07:30:22.718Z,81.47
2022-09-10T07:32:52.273Z,81.50
2022-09-10T07:35:25.354Z,81.47
2022-09-10T07:37:54.488Z,81.55
2022-09-10T07:40:23.563Z,81.41
2022-09-10T07:42:52.753Z,81.32
2022-09-10T07:45:21.511Z,81.47
2022-09-10T07:47:50.019Z,81.41
2022-09-10T07:50:19.516Z,81.44
2022-09-10T07:52:52.812Z,81.40
2022-09-10T07:55:23.570Z,81.29
2022-09-10T07:57:52.283Z,81.13
2022-09-10T08:00:20.479Z,81.20
2022-09-10T08:02:50.725Z,81.19
2022-09-10T08:05:20.469Z,80.92
2022-09-10T08:07:54.410Z,80.78
2022-09-10T08:10:22.924Z,81.01
2022-09-10T08:12:51.209Z,80.95
2022-09-10T08:15:19.548Z,80.76
2022-09-10T08:17:48.038Z,80.72
2022-09-10T08:20:16.204Z,80.84
2022-09-10T08:22:45.223Z,80.90
2022-09-10T08:25:14.879Z,80.89
2022-09-10T08:27:42.962Z,80.93
2022-09-10T08:30:12.738Z,81.01
2022-09-10T08:32:42.160Z,80.94
2022-09-10T08:35:10.428Z,80.93
2022-09-10T08:37:38.280Z,80.96
2022-09-10T08:40:12.034Z,80.89
2022-09-10T08:42:47.137Z,80.87
2022-09-10T08:45:31.218Z,80.83
2022-09-10T08:48:22.128Z,80.95
2022-09-10T08:50:58.139Z,80.87
2022-09-10T08:53:32.767Z,81.05
2022-09-10T08:56:10.401Z,81.04
2022-09-10T08:58:47.417Z,80.82
2022-09-10T09:01:30.909Z,80.76
2022-09-10T09:29:34.875Z,80.68
2022-09-10T09:32:16.112Z,80.69
2022-09-10T09:34:50.617Z,80.71
2022-09-10T09:37:30.257Z,80.62
2022-09-10T09:40:21.341Z,80.30
2022-09-10T09:42:58.689Z,80.15
2022-09-10T09:45:37.760Z,80.21
2022-09-10T09:48:07.664Z,79.92
2022-09-10T09:50:55.077Z,79.95
2022-09-10T09:53:29.206Z,79.77
2022-09-10T09:56:01.053Z,79.68
2022-09-10T09:58:34.835Z,79.58
2022-09-10T10:01:14.691Z,79.60
2022-09-10T10:03:48.727Z,79.50
2022-09-10T10:06:17.522Z,79.40
2022-09-10T10:09:04.807Z,79.36
2022-09-10T10:11:51.505Z,79.27
2022-09-10T10:14:20.598Z,79.33
2022-09-10T10:16:52.186Z,79.42
2022-09-10T10:19:29.424Z,79.45
2022-09-10T10:21:59.873Z,79.52
2022-09-10T10:24:34.158Z,79.54
2022-09-10T10:27:02.419Z,79.49
2022-09-10T10:29:31.013Z,79.43
2022-09-10T10:32:05.454Z,79.53
2022-09-10T10:34:54.184Z,79.46
2022-09-10T10:37:43.940Z,79.69
2022-09-10T10:40:23.783Z,79.65
2022-09-10T10:43:21.323Z,79.64
2022-09-10T10:46:08.815Z,79.37
2022-09-10T10:48:57.760Z,78.97
2022-09-10T10:51:50.832Z,78.96
2022-09-10T10:54:37.603Z,78.87
2022-09-10T10:57:20.302Z,78.84
2022-09-10T11:00:12.483Z,78.65
2022-09-10T11:03:02.513Z,78.35
2022-09-10T11:05:37.707Z,78.55
2022-09-10T11:08:15.293Z,78.63
2022-09-10T11:10:50.655Z,78.72
2022-09-10T11:13:27.354Z,78.64
2022-09-10T11:16:04.416Z,78.61
2022-09-10T11:18:43.798Z,78.60
2022-09-10T11:21:34.876Z,78.65
2022-09-10T11:24:47.592Z,78.50
2022-09-10T11:27:33.369Z,78.49
2022-09-10T11:30:04.735Z,78.26
2022-09-10T11:32:40.214Z,78.16
2022-09-10T11:35:29.543Z,78.30
2022-09-10T11:38:12.858Z,78.21
2022-09-10T11:40:56.346Z,78.19
2022-09-10T11:43:30.709Z,78.16
2022-09-10T11:46:04.777Z,78.02
2022-09-10T11:48:48.473Z,78.00
2022-09-10T11:51:24.535Z,77.72
2022-09-10T11:53:55.054Z,77.85
2022-09-10T11:56:38.336Z,77.70
2022-09-10T11:59:44.094Z,77.78
2022-09-10T12:02:24.511Z,77.15
2022-09-10T12:05:07.158Z,76.82
2022-09-10T12:07:53.953Z,76.99
2022-09-10T12:11:01.184Z,77.04
2022-09-10T12:13:29.970Z,77.01
2022-09-10T12:16:16.034Z,76.82
2022-09-10T12:18:49.139Z,76.57
2022-09-10T12:21:38.168Z,76.59
2022-09-10T12:24:31.634Z,76.64
2022-09-10T12:27:05.437Z,76.63
2022-09-10T12:29:37.903Z,76.47
2022-09-10T12:32:09.003Z,76.29
2022-09-10T12:34:38.220Z,76.25
2022-09-10T12:37:07.939Z,76.41
2022-09-10T12:39:36.053Z,76.39
2022-09-10T12:42:34.418Z,76.34
2022-09-10T12:45:02.485Z,76.62
2022-09-10T12:47:40.162Z,76.63
2022-09-10T12:50:27.167Z,76.35
2022-09-10T12:53:13.789Z,76.31
2022-09-10T12:56:02.255Z,76.36
2022-09-10T12:59:04.063Z,76.59
2022-09-10T13:02:02.435Z,76.68
2022-09-10T13:04:37.377Z,76.55
2022-09-10T13:07:21.263Z,76.59
2022-09-10T13:10:23.676Z,76.39
2022-09-10T13:12:55.933Z,76.35
2022-09-10T13:15:30.157Z,76.50
2022-09-10T13:22:32.098Z,76.35
2022-09-10T13:25:43.252Z,76.38
2022-09-10T13:28:30.500Z,76.49
2022-09-10T13:31:25.366Z,76.24
2022-09-10T13:33:57.020Z,76.02
2022-09-10T13:36:30.385Z,76.09
2022-09-10T13:39:28.792Z,75.92
2022-09-10T13:42:18.474Z,76.04
2022-09-10T13:45:31.449Z,75.94
2022-09-10T13:48:02.093Z,76.03
2022-09-10T13:50:39.260Z,75.95
2022-09-10T13:53:27.927Z,76.15
2022-09-10T13:56:14.448Z,75.98
2022-09-10T13:58:49.681Z,76.04
2022-09-10T14:01:18.126Z,75.96
2022-09-10T14:03:46.192Z,75.75
2022-09-10T14:06:22.471Z,75.83
2022-09-10T14:08:53.387Z,76.06
2022-09-10T14:11:37.640Z,76.08
2022-09-10T14:14:11.664Z,75.80
2022-09-10T14:16:49.983Z,75.78
2022-09-10T14:19:30.018Z,75.76
2022-09-10T14:21:58.520Z,75.78
2022-09-10T14:24:35.732Z,75.98
2022-09-10T14:27:19.688Z,75.97
2022-09-10T14:29:47.857Z,75.87
2022-09-10T14:32:34.480Z,75.86
2022-09-10T14:35:37.626Z,75.75
2022-09-10T14:38:48.035Z,75.82
2022-09-10T14:41:24.814Z,75.76
2022-09-10T14:44:22.271Z,75.88
2022-09-10T14:46:58.971Z,75.88
2022-09-10T14:49:40.425Z,75.85
2022-09-10T14:52:12.031Z,76.07
2022-09-10T14:54:40.466Z,76.00
2022-09-10T14:57:17.199Z,75.94
2022-09-10T14:59:50.270Z,75.99
2022-09-10T15:02:27.235Z,76.08
2022-09-10T15:04:55.937Z,76.01
2022-09-10T15:07:27.600Z,76.12
2022-09-10T15:10:14.421Z,76.16
2022-09-10T15:12:47.466Z,76.21
2022-09-10T15:15:17.865Z,76.14
2022-09-10T15:17:45.855Z,76.18
2022-09-10T15:20:17.181Z,76.18
2022-09-10T15:22:45.471Z,76.14
2022-09-10T15:25:33.910Z,76.23
2022-09-10T15:28:06.207Z,76.14
2022-09-10T15:30:36.062Z,76.30
2022-09-10T15:33:06.111Z,76.19
2022-09-10T15:35:34.120Z,76.26
2022-09-10T15:38:04.183Z,76.22
2022-09-10T15:40:32.091Z,76.36
2022-09-10T15:43:00.064Z,76.28
2022-09-10T15:45:28.415Z,76.39
2022-09-10T15:47:56.521Z,76.36
2022-09-10T15:50:24.630Z,76.35
2022-09-10T15:52:52.492Z,76.44
2022-09-10T15:55:21.610Z,76.52
2022-09-10T15:57:51.476Z,76.40
2022-09-10T16:00:20.361Z,76.53
2022-09-10T16:02:53.272Z,76.42
2022-09-10T16:05:21.660Z,76.37
2022-09-10T16:07:49.696Z,76.54
2022-09-10T16:10:18.039Z,76.63
2022-09-10T16:12:45.990Z,76.54
2022-09-10T16:15:14.197Z,76.52
2022-09-10T16:17:42.476Z,76.58
2022-09-10T16:20:10.509Z,76.52
2022-09-10T16:22:38.821Z,76.55
2022-09-10T16:25:08.865Z,76.45
2022-09-10T16:27:40.429Z,76.67
2022-09-10T16:30:12.489Z,76.64
2022-09-10T16:32:40.902Z,76.62
2022-09-10T16:35:09.662Z,76.66
2022-09-10T16:37:37.674Z,76.76
2022-09-10T16:40:07.291Z,76.62
2022-09-10T16:42:35.195Z,76.73
2022-09-10T16:45:03.224Z,76.77
2022-09-10T16:47:31.209Z,76.72
2022-09-10T16:49:59.155Z,76.83
2022-09-10T16:52:27.083Z,76.77
2022-09-10T16:54:55.802Z,76.90
2022-09-10T16:57:23.940Z,76.91
2022-09-10T16:59:52.733Z,76.84
2022-09-10T17:02:20.667Z,76.90
2022-09-10T17:04:48.668Z,76.97
2022-09-10T17:07:16.464Z,77.16
2022-09-10T17:09:44.500Z,77.26
2022-09-10T17:12:12.612Z,77.22
2022-09-10T17:14:40.960Z,77.28
2022-09-10T17:17:10.028Z,77.39
2022-09-10T17:19:38.003Z,77.35
2022-09-10T17:22:06.642Z,77.38
2022-09-10T17:24:34.614Z,77.15
2022-09-10T17:27:02.721Z,77.22
2022-09-10T17:29:33.096Z,77.26
2022-09-10T17:32:01.257Z,77.35
2022-09-10T17:34:29.373Z,77.27
2022-09-10T17:36:57.541Z,77.36
2022-09-10T17:39:28.584Z,77.35
2022-09-10T17:41:57.484Z,77.25
2022-09-10T17:44:25.951Z,77.27
2022-09-10T17:46:55.277Z,77.39
2022-09-10T17:49:24.095Z,77.60
2022-09-10T17:51:58.625Z,77.56
2022-09-10T17:54:26.732Z,77.79
2022-09-10T17:56:54.781Z,77.97
2022-09-10T17:59:24.701Z,77.82
2022-09-10T18:01:54.061Z,77.74
2022-09-10T18:04:22.167Z,77.92
2022-09-10T18:06:52.512Z,77.87
2022-09-10T18:09:21.869Z,77.92
2022-09-10T18:11:50.477Z,77.92
2022-09-10T18:14:19.910Z,77.74
2022-09-10T18:16:48.001Z,77.81
2022-09-10T18:19:18.020Z,77.88
2022-09-10T18:21:47.406Z,77.91
2022-09-10T18:24:22.659Z,77.83
2022-09-10T18:26:54.021Z,77.94
2022-09-10T18:29:30.252Z,78.08
2022-09-10T18:32:02.102Z,77.96
2022-09-10T18:34:31.137Z,78.03
2022-09-10T18:37:01.171Z,78.07
2022-09-10T18:39:31.312Z,78.05
2022-09-10T18:42:01.222Z,78.08
2022-09-10T18:44:35.435Z,78.10
2022-09-10T18:47:14.239Z,78.18
2022-09-10T18:49:50.717Z,78.06
2022-09-10T18:52:18.832Z,78.07
2022-09-10T18:54:46.859Z,78.09
2022-09-10T18:57:14.861Z,78.18
2022-09-10T18:59:42.988Z,78.22
2022-09-10T19:02:13.107Z,78.13
2022-09-10T19:04:54.652Z,78.08
2022-09-10T19:07:29.665Z,78.17
2022-09-10T19:09:57.875Z,78.20
2022-09-10T19:12:26.492Z,78.20
2022-09-10T19:14:54.766Z,78.11
2022-09-10T19:17:22.993Z,78.19
2022-09-10T19:19:51.023Z,78.19
2022-09-10T19:22:19.619Z,78.07
2022-09-10T19:24:55.768Z,78.17
2022-09-10T19:27:24.891Z,78.28
2022-09-10T19:29:53.988Z,78.26
2022-09-10T19:32:22.085Z,78.33
2022-09-10T19:34:51.426Z,78.37
2022-09-10T19:37:19.984Z,78.58
2022-09-10T19:39:48.355Z,78.37
2022-09-10T19:42:17.350Z,78.27
2022-09-10T19:44:45.244Z,78.33
2022-09-10T19:47:13.123Z,78.48
2022-09-10T19:49:43.531Z,78.42
2022-09-10T19:52:11.473Z,78.35
2022-09-10T19:54:39.970Z,78.34
2022-09-10T19:57:08.291Z,78.25
2022-09-10T19:59:36.225Z,78.44
2022-09-10T20:02:04.405Z,78.30
2022-09-10T20:04:33.252Z,78.36
2022-09-10T20:07:01.456Z,78.42
2022-09-10T20:09:29.642Z,78.52
2022-09-10T20:11:57.865Z,78.52
2022-09-10T20:14:26.097Z,78.65
2022-09-10T20:17:04.612Z,78.47
2022-09-10T20:19:32.790Z,78.55
2022-09-10T20:22:00.702Z,78.54
2022-09-10T20:24:28.769Z,78.70
2022-09-10T20:26:57.202Z,78.75
2022-09-10T20:29:25.568Z,78.69
2022-09-10T20:31:53.531Z,78.79
2022-09-10T20:34:22.645Z,78.94
2022-09-10T20:36:51.659Z,78.82
2022-09-10T20:39:22.375Z,78.77
2022-09-10T20:41:50.846Z,78.84
2022-09-10T20:44:20.930Z,78.81
2022-09-10T20:46:49.460Z,78.93
2022-09-10T20:49:21.915Z,78.94
2022-09-10T20:52:04.740Z,78.92
2022-09-10T20:54:33.097Z,78.95
2022-09-10T20:57:02.336Z,79.02
2022-09-10T20:59:30.704Z,79.15
2022-09-10T21:01:59.180Z,79.04
2022-09-10T21:04:27.227Z,79.09
2022-09-10T21:06:56.418Z,79.21
2022-09-10T21:09:24.785Z,79.12
2022-09-10T21:11:52.568Z,79.23
2022-09-10T21:14:20.394Z,79.36
2022-09-10T21:16:48.712Z,79.34
2022-09-10T21:19:18.021Z,79.41
2022-09-10T21:21:51.803Z,79.33
2022-09-10T21:24:25.051Z,79.40
2022-09-10T21:26:53.787Z,79.54
2022-09-10T21:29:22.639Z,79.48
2022-09-10T21:31:50.901Z,79.55
2022-09-10T21:34:19.416Z,79.56
2022-09-10T21:36:47.981Z,79.50
2022-09-10T21:39:18.503Z,79.49
2022-09-10T21:41:50.236Z,79.49
2022-09-10T21:44:22.270Z,79.45
2022-09-10T21:46:50.832Z,79.43
2022-09-10T21:49:20.453Z,79.37
2022-09-10T21:51:49.029Z,79.60
2022-09-10T21:54:21.149Z,79.72
2022-09-10T21:56:50.694Z,79.58
2022-09-10T21:59:20.507Z,79.65
2022-09-10T22:01:49.145Z,79.56
2022-09-10T22:04:22.588Z,79.72
2022-09-10T22:06:52.014Z,79.63
2022-09-10T22:09:21.559Z,79.69
2022-09-10T22:11:53.255Z,79.67
2022-09-10T22:14:23.645Z,79.78
2022-09-10T22:16:52.450Z,79.89
2022-09-10T22:19:23.916Z,79.88
2022-09-10T22:21:54.333Z,79.84
2022-09-10T22:24:23.061Z,79.86
2022-09-10T22:26:50.913Z,79.83
2022-09-10T22:29:20.581Z,79.81
2022-09-10T22:31:49.685Z,79.89
2022-09-10T22:34:18.350Z,79.91
2022-09-10T22:36:48.766Z,79.91
2022-09-10T22:39:21.722Z,79.94
2022-09-10T22:41:50.882Z,79.94
2022-09-10T22:44:20.375Z,79.77
2022-09-10T22:46:48.556Z,79.80
2022-09-10T22:49:18.188Z,79.85
2022-09-10T22:51:46.281Z,79.75
2022-09-10T22:54:14.770Z,79.69
2022-09-10T22:56:44.717Z,79.66
2022-09-10T22:59:14.140Z,79.55
2022-09-10T23:01:43.514Z,79.34
2022-09-10T23:04:11.753Z,79.39
2022-09-10T23:06:40.029Z,79.39
2022-09-10T23:09:11.449Z,79.38
2022-09-10T23:11:41.218Z,79.15
2022-09-10T23:14:13.137Z,79.31
2022-09-10T23:16:44.243Z,79.21
2022-09-10T23:19:15.712Z,79.12
2022-09-10T23:21:46.767Z,79.06
2022-09-10T23:24:17.302Z,78.97
2022-09-10T23:26:45.844Z,79.02
2022-09-10T23:29:18.620Z,78.89
2022-09-10T23:31:48.021Z,79.11
2022-09-10T23:34:18.957Z,79.12
2022-09-10T23:36:48.939Z,79.17
2022-09-10T23:39:20.165Z,79.24
2022-09-10T23:41:50.116Z,79.13
2022-09-10T23:44:18.115Z,79.28
2022-09-10T23:46:46.237Z,79.23
2022-09-10T23:49:14.790Z,79.30
2022-09-10T23:51:42.745Z,79.33
2022-09-10T23:54:13.088Z,79.50
2022-09-10T23:56:41.629Z,79.36
2022-09-10T23:59:20.174Z,79.53
